Data for 11/27/2007

Time Sea-Level Adjusted Pressure Absolute Pressure Temperature Relative Humidity Dew Point   
(mb) (inHg) (mb) (inHg) (C) (F) (%) (C) (F)
00:05 1013 29.91 842 24.86 0.6 33 39 -12 10.4
00:10 1012 29.88 842 24.86 0.9 33.6 37 -12.3 9.9
00:15 1012 29.88 842 24.86 1 33.8 37 -12 10.4
00:20 1012 29.88 842 24.86 1 33.8 39 -11.5 11.2
00:25 1012 29.88 842 24.86 0.9 33.6 37 -12.2 10
00:30 1012 29.88 841 24.83 1 33.7 37 -12.1 10.3
00:35 1012 29.88 841 24.83 0.9 33.6 41 -11 12.2
00:40 1012 29.88 841 24.83 1 33.8 35 -12.8 9
00:45 1012 29.88 841 24.83 1.3 34.3 36 -12.3 9.8
00:50 1012 29.88 841 24.83 1.2 34.1 38 -11.6 11.1
00:55 1012 29.88 841 24.83 1.4 34.6 33 -13.3 8
01:00 1012 29.88 841 24.83 1.6 34.9 38 -11.2 11.8
01:05 1012 29.88 841 24.83 1.1 34 41 -10.7 12.8
01:10 1012 29.88 841 24.83 0.8 33.4 41 -11.1 12
01:15 1012 29.88 841 24.83 0.7 33.3 40 -11.4 11.5
01:20 1011 29.85 841 24.83 0.9 33.6 39 -11.6 11.1
01:25 1011 29.85 841 24.83 1 33.7 39 -11.5 11.4
01:30 1011 29.85 840 24.81 1 33.9 37 -12 10.4
01:35 1011 29.85 840 24.81 1.3 34.3 34 -12.9 8.8
01:40 1011 29.85 840 24.81 1.5 34.8 34 -12.8 9
01:45 1011 29.85 840 24.81 1.7 35.1 32 -13.1 8.4
01:50 1011 29.85 840 24.81 1.9 35.4 34 -12.4 9.7
01:55 1011 29.85 840 24.81 1.8 35.2 35 -12.1 10.1
02:00 1011 29.85 840 24.81 1.6 34.9 33 -12.9 8.8
02:05 1011 29.85 840 24.81 1.8 35.3 33 -12.8 8.9
02:10 1011 29.85 840 24.81 2 35.5 33 -12.6 9.3
02:15 1011 29.85 840 24.81 1.9 35.4 34 -12.3 9.9
02:20 1011 29.85 840 24.81 1.7 35 37 -11.6 11.1
02:25 1011 29.85 840 24.81 1.4 34.6 38 -11.3 11.7
02:30 1010 29.83 840 24.81 1.3 34.3 39 -11.3 11.6
02:35 1010 29.83 840 24.81 1.2 34.1 40 -11.1 12.1
02:40 1010 29.83 840 24.81 1.1 34 41 -10.8 12.5
02:45 1010 29.83 840 24.81 1.1 33.9 41 -10.7 12.7
02:50 1010 29.83 839 24.78 1 33.9 38 -11.9 10.7
02:55 1010 29.83 839 24.78 1.4 34.5 40 -10.8 12.5
03:00 1010 29.83 839 24.78 1.2 34.2 43 -10.2 13.7
03:05 1010 29.83 839 24.78 1 33.9 40 -11.1 12
03:10 1010 29.83 839 24.78 1 33.8 39 -11.5 11.2
03:15 1010 29.83 839 24.78 1.2 34.1 40 -11.1 12
03:20 1010 29.83 839 24.78 1.1 33.9 42 -10.5 13.1
03:25 1010 29.83 839 24.78 0.9 33.6 44 -10 14
03:30 1010 29.83 839 24.78 0.9 33.6 41 -11 12.3
03:35 1010 29.83 839 24.78 1.3 34.3 38 -11.4 11.5
03:40 1010 29.83 839 24.78 1.4 34.6 39 -11.1 12.1
03:45 1010 29.83 839 24.78 1.5 34.7 39 -11.1 12
03:50 1010 29.83 839 24.78 1.6 34.8 39 -11.1 12.1
03:55 1009 29.8 839 24.78 1.5 34.7 38 -11.2 11.8
04:00 1009 29.8 839 24.78 1.8 35.2 38 -11.2 11.9
04:05 1009 29.8 838 24.75 1.5 34.7 44 -9.5 14.8
04:10 1009 29.8 838 24.75 1.3 34.3 42 -10.4 13.3
04:15 1009 29.8 838 24.75 2.5 36.5 30 -13.2 8.2
04:20 1009 29.8 838 24.75 3.9 39 31 -11.7 10.9
04:25 1009 29.8 838 24.75 3.9 39 31 -11.6 11.1
04:30 1009 29.8 838 24.75 3.6 38.6 35 -10.5 13
04:35 1009 29.8 838 24.75 3.3 37.9 35 -10.7 12.7
04:40 1009 29.8 838 24.75 3.1 37.7 36 -10.4 13.3
04:45 1009 29.8 838 24.75 3.1 37.5 40 -9.4 15.1
04:50 1009 29.8 838 24.75 2.4 36.4 41 -9.5 14.9
04:55 1009 29.8 838 24.75 1.8 35.3 42 -9.8 14.4
05:00 1009 29.8 838 24.75 2.5 36.4 36 -11.1 12
05:05 1009 29.8 838 24.75 3.2 37.7 30 -12.6 9.3
05:10 1009 29.8 838 24.75 4.3 39.7 30 -11.8 10.7
05:15 1009 29.8 838 24.75 4.2 39.6 33 -10.6 13
05:20 1009 29.8 838 24.75 4.1 39.4 35 -10 14.1
05:25 1009 29.8 838 24.75 3.7 38.6 39 -9 15.8
05:30 1009 29.8 838 24.75 3.3 38 41 -8.8 16.1
05:35 1009 29.8 838 24.75 3.6 38.5 35 -10.5 13.1
05:40 1009 29.8 838 24.75 3.4 38.1 41 -8.8 16.2
05:45 1009 29.8 838 24.75 3.2 37.8 40 -9.1 15.5
05:50 1009 29.8 838 24.75 3.1 37.6 41 -9 15.8
05:55 1009 29.8 838 24.75 3.1 37.7 44 -8.1 17.5
06:00 1009 29.8 838 24.75 2.9 37.3 46 -7.5 18.5
06:05 1009 29.8 838 24.75 2.7 36.9 45 -8.1 17.4
06:10 1009 29.8 838 24.75 2.7 36.8 46 -7.9 17.8
06:15 1009 29.8 838 24.75 2.6 36.6 49 -7.2 19
06:20 1009 29.8 838 24.75 2.4 36.3 52 -6.6 20.1
06:25 1009 29.8 838 24.75 2 35.6 55 -6 21.1
06:30 1008 29.77 838 24.75 1.8 35.2 54 -6.5 20.2
06:35 1008 29.77 838 24.75 1.7 35.1 56 -6.1 21
06:40 1008 29.77 838 24.75 1.5 34.8 57 -6.1 21
06:45 1008 29.77 838 24.75 1.6 34.9 54 -6.7 20
06:50 1008 29.77 838 24.75 2 35.5 53 -6.7 20
06:55 1008 29.77 837 24.72 2 35.7 53 -6.5 20.3
07:00 1008 29.77 837 24.72 2.1 35.9 54 -6.2 20.8
07:05 1008 29.77 837 24.72 2.2 36 54 -6.2 20.8
07:10 1008 29.77 837 24.72 2.1 35.8 53 -6.4 20.4
07:15 1008 29.77 837 24.72 2.1 35.9 53 -6.4 20.5
07:20 1008 29.77 837 24.72 2 35.7 54 -6.3 20.7
07:25 1008 29.77 837 24.72 2 35.6 52 -6.9 19.5
07:30 1008 29.77 837 24.72 2.1 35.9 52 -6.7 20
07:35 1008 29.77 838 24.75 2.2 35.9 51 -7 19.4
07:40 1008 29.77 838 24.75 2.1 35.8 54 -6.2 20.8
07:45 1008 29.77 838 24.75 1.9 35.4 55 -6.2 20.9
07:50 1009 29.8 838 24.75 1.7 35 57 -6 21.2
07:55 1009 29.8 838 24.75 1.5 34.7 56 -6.2 20.8
08:00 1009 29.8 838 24.75 1.7 35 56 -6.2 20.8
08:05 1009 29.8 838 24.75 1.7 35 57 -5.9 21.5
08:10 1010 29.83 839 24.78 1.5 34.8 62 -4.9 23.2
08:15 1010 29.83 839 24.78 1.3 34.4 62 -5.1 22.8
08:20 1010 29.83 839 24.78 1.4 34.5 63 -4.9 23.2
08:25 1010 29.83 839 24.78 1.3 34.4 64 -4.9 23.3
08:30 1010 29.83 839 24.78 1.4 34.6 64 -4.6 23.7
08:35 1010 29.83 839 24.78 1.3 34.3 75 -2.6 27.3
08:40 1010 29.83 839 24.78 0.7 33.3 76 -2.9 26.7
08:45 1009 29.8 839 24.78 0.7 33.3 73 -3.6 25.6
08:50 1010 29.83 839 24.78 0.8 33.4 75 -3.2 26.3
08:55 1010 29.83 839 24.78 0.6 33.1 72 -3.8 25.1
09:00 1009 29.8 839 24.78 0.7 33.3 66 -4.9 23.1
09:05 1009 29.8 839 24.78 1.1 33.9 60 -5.9 21.4
09:10 1009 29.8 838 24.75 1.4 34.5 57 -6.3 20.7
09:15 1009 29.8 838 24.75 1.6 34.8 54 -6.7 19.9
09:20 1009 29.8 838 24.75 1.7 35 54 -6.7 20
09:25 1009 29.8 838 24.75 1.6 34.9 53 -6.8 19.7
09:30 1009 29.8 838 24.75 1.6 34.9 54 -6.9 19.7
09:35 1009 29.8 839 24.78 1.8 35.2 53 -6.9 19.6
09:40 1009 29.8 839 24.78 1.9 35.4 50 -7.4 18.6
09:45 1009 29.8 839 24.78 2.1 35.7 49 -7.5 18.5
09:50 1009 29.8 839 24.78 2.1 35.8 49 -7.6 18.3
09:55 1010 29.83 839 24.78 2.2 36 48 -7.8 18
10:00 1010 29.83 839 24.78 2.3 36.2 48 -7.6 18.3
10:05 1010 29.83 839 24.78 2.4 36.3 46 -8.2 17.2
10:10 1010 29.83 839 24.78 2.5 36.5 46 -7.9 17.7
10:15 1010 29.83 839 24.78 2.8 37 45 -7.9 17.8
10:20 1010 29.83 840 24.81 3.1 37.5 46 -7.5 18.6
10:25 1011 29.85 840 24.81 3 37.4 47 -7.2 19
10:30 1011 29.85 840 24.81 3 37.3 42 -8.8 16.1
10:35 1011 29.85 840 24.81 3.1 37.6 42 -8.6 16.6
10:40 1011 29.85 840 24.81 3.6 38.5 43 -7.8 18
10:45 1011 29.85 840 24.81 3.9 39.1 35 -10.1 13.9
10:50 1011 29.85 840 24.81 3.4 38 38 -9.7 14.5
10:55 1011 29.85 840 24.81 2.6 36.8 39 -9.9 14.1
11:00 1011 29.85 840 24.81 2.4 36.4 41 -9.7 14.6
11:05 1011 29.85 841 24.83 1.9 35.4 43 -9.4 15.1
11:10 1011 29.85 841 24.83 1.5 34.7 45 -9.2 15.5
11:15 1011 29.85 841 24.83 1.3 34.4 42 -10.1 13.8
11:20 1011 29.85 841 24.83 1.1 34 43 -10 14
11:25 1011 29.85 841 24.83 0.9 33.7 44 -10.1 13.8
11:30 1011 29.85 841 24.83 0.7 33.3 44 -10.1 13.8
11:35 1011 29.85 840 24.81 0.6 33.1 41 -11.1 12
11:40 1011 29.85 840 24.81 0.6 33 43 -10.5 13
11:45 1011 29.85 840 24.81 0.3 32.5 42 -11.3 11.7
11:50 1011 29.85 840 24.81 0.4 32.7 40 -11.9 10.7
11:55 1011 29.85 840 24.81 0.4 32.8 42 -11 12.1
12:00 1011 29.85 840 24.81 0.7 33.3 40 -11.3 11.7
12:05 1011 29.85 840 24.81 1.1 34 42 -10.4 13.2
12:10 1011 29.85 840 24.81 1.4 34.6 45 -9.3 15.2
12:15 1011 29.85 840 24.81 1.5 34.7 42 -10 14
12:20 1011 29.85 840 24.81 1.7 35.1 38 -11 12.2
12:25 1011 29.85 841 24.83 1.9 35.5 41 -9.9 14.1
12:30 1012 29.88 841 24.83 2.4 36.3 39 -10.1 13.8
12:35 1012 29.88 841 24.83 2.8 37 37 -10.5 13
12:40 1012 29.88 841 24.83 2.7 36.8 35 -11.4 11.5
12:45 1012 29.88 841 24.83 2.5 36.5 33 -12.3 9.9
12:50 1012 29.88 841 24.83 2.2 36 34 -12.1 10.2
12:55 1012 29.88 841 24.83 2.1 35.8 33 -12.4 9.7
13:00 1012 29.88 841 24.83 1.9 35.4 32 -13 8.5
13:05 1012 29.88 841 24.83 1.6 34.9 33 -13.2 8.3
13:10 1012 29.88 842 24.86 1.5 34.7 34 -12.8 9
13:15 1012 29.88 842 24.86 1.5 34.7 34 -12.9 8.8
13:20 1013 29.91 842 24.86 1.5 34.6 35 -12.3 9.9
13:25 1013 29.91 842 24.86 1.3 34.4 41 -10.6 12.9
13:30 1013 29.91 842 24.86 1.3 34.3 42 -10.2 13.6
13:35 1013 29.91 842 24.86 1.2 34.2 44 -9.9 14.2
13:40 1013 29.91 842 24.86 1.2 34.1 43 -10.1 13.9
13:45 1013 29.91 842 24.86 1.2 34.1 43 -10 13.9
13:50 1013 29.91 842 24.86 1.1 34 41 -10.6 12.9
13:55 1013 29.91 842 24.86 1.1 33.9 41 -10.6 12.8
14:00 1013 29.91 842 24.86 1 33.8 41 -11 12.2
14:05 1013 29.91 843 24.89 0.9 33.7 40 -11.3 11.6
14:10 1013 29.91 843 24.89 1 33.8 39 -11.4 11.4
14:15 1013 29.91 843 24.89 1 33.9 39 -11.4 11.5
14:20 1013 29.91 843 24.89 1 33.7 39 -11.5 11.2
14:25 1013 29.91 843 24.89 0.9 33.7 39 -11.6 11.2
14:30 1013 29.91 843 24.89 0.9 33.7 40 -11.2 11.9
14:35 1014 29.94 843 24.89 0.9 33.7 40 -11.3 11.6
14:40 1014 29.94 843 24.89 0.9 33.6 37 -12.2 10.1
14:45 1014 29.94 843 24.89 0.9 33.6 38 -11.8 10.8
14:50 1014 29.94 843 24.89 0.9 33.6 40 -11.1 11.9
14:55 1014 29.94 843 24.89 0.8 33.4 43 -10.5 13.2
15:00 1014 29.94 843 24.89 0.8 33.4 43 -10.4 13.4
15:05 1014 29.94 843 24.89 0.8 33.4 43 -10.6 13
15:10 1014 29.94 843 24.89 0.7 33.2 41 -11 12.1
15:15 1014 29.94 843 24.89 0.6 33.2 42 -10.9 12.3
15:20 1014 29.94 843 24.89 0.6 33 42 -10.9 12.5
15:25 1014 29.94 843 24.89 0.5 32.8 42 -10.9 12.4
15:30 1014 29.94 843 24.89 0.4 32.6 41 -11.5 11.4
15:35 1014 29.94 843 24.89 0.2 32.4 41 -11.4 11.4
15:40 1014 29.94 844 24.92 0.1 32.2 43 -11.2 11.9
15:45 1014 29.94 844 24.92 -0 32 43 -11.1 12.1
15:50 1015 29.97 844 24.92 -0.2 31.7 44 -10.9 12.4
15:55 1015 29.97 844 24.92 -0.3 31.5 44 -11 12.1
16:00 1015 29.97 844 24.92 -0.4 31.3 44 -11.2 11.9
16:05 1015 29.97 844 24.92 -0.4 31.2 45 -10.8 12.5
16:10 1015 29.97 844 24.92 -0.5 31.1 46 -10.9 12.4
16:15 1015 29.97 844 24.92 -0.6 31 45 -11.2 11.9
16:20 1015 29.97 844 24.92 -0.5 31.1 45 -11.1 11.9
16:25 1015 29.97 844 24.92 -0.6 31 46 -10.8 12.5
16:30 1015 29.97 844 24.92 -0.6 30.9 45 -11 12.2
16:35 1015 29.97 845 24.95 -0.7 30.7 47 -10.8 12.6
16:40 1015 29.97 845 24.95 -0.9 30.5 49 -10.3 13.4
16:45 1016 30 845 24.95 -1 30.1 52 -9.6 14.7
16:50 1016 30 845 24.95 -1.2 29.9 56 -8.9 16
16:55 1016 30 845 24.95 -1.4 29.6 58 -8.6 16.5
17:00 1016 30 845 24.95 -1.5 29.3 60 -8.3 17.1
17:05 1016 30 845 24.95 -1.6 29 62 -8.1 17.4
17:10 1016 30 845 24.95 -1.8 28.8 63 -7.9 17.7
17:15 1016 30 845 24.95 -1.9 28.6 64 -7.8 18
17:20 1016 30 845 24.95 -2 28.5 65 -7.8 18
17:25 1016 30 846 24.98 -2 28.4 65 -7.7 18.2
17:30 1016 30 846 24.98 -2.2 28.1 66 -7.7 18.1
17:35 1016 30 846 24.98 -2.3 27.9 66 -7.8 18
17:40 1017 30.03 846 24.98 -2.3 27.8 66 -7.8 17.9
17:45 1017 30.03 846 24.98 -2.4 27.7 67 -7.8 18
17:50 1017 30.03 846 24.98 -2.4 27.6 67 -7.8 18
17:55 1017 30.03 846 24.98 -2.6 27.4 67 -7.9 17.8
18:00 1017 30.03 846 24.98 -2.6 27.4 67 -7.9 17.7
18:05 1017 30.03 846 24.98 -2.6 27.4 66 -8.1 17.5
18:10 1017 30.03 846 24.98 -2.6 27.3 66 -8.1 17.4
18:15 1017 30.03 846 24.98 -2.6 27.2 66 -8.2 17.3
18:20 1017 30.03 846 24.98 -2.7 27.2 66 -8.2 17.2
18:25 1017 30.03 846 24.98 -2.7 27.1 66 -8.2 17.2
18:30 1017 30.03 846 24.98 -2.9 26.9 67 -8.2 17.2
18:35 1017 30.03 846 24.98 -2.9 26.7 68 -8 17.5
18:40 1017 30.03 846 24.98 -3.4 25.9 70 -8.1 17.3
18:45 1017 30.03 846 24.98 -3.8 25.2 72 -8.2 17.3
18:50 1017 30.03 847 25.01 -4.1 24.5 72 -8.4 16.8
18:55 1018 30.06 847 25.01 -4.1 24.6 72 -8.4 16.9
19:00 1018 30.06 847 25.01 -4 24.8 71 -8.6 16.5
19:05 1018 30.06 847 25.01 -3.9 24.9 70 -8.7 16.4
19:10 1018 30.06 847 25.01 -3.8 25.2 70 -8.6 16.6
19:15 1018 30.06 847 25.01 -3.6 25.4 69 -8.6 16.6
19:20 1018 30.06 847 25.01 -3.5 25.6 69 -8.4 16.9
19:25 1018 30.06 847 25.01 -3.7 25.4 70 -8.4 16.9
19:30 1018 30.06 847 25.01 -4.1 24.6 71 -8.5 16.6
19:35 1018 30.06 847 25.01 -4.2 24.4 70 -8.9 16.1
19:40 1018 30.06 847 25.01 -4.2 24.4 70 -8.9 15.9
19:45 1018 30.06 847 25.01 -4.4 24.2 70 -9 15.7
19:50 1018 30.06 847 25.01 -4.3 24.2 69 -9.1 15.6
19:55 1018 30.06 847 25.01 -4.1 24.5 68 -9.1 15.5
20:00 1018 30.06 847 25.01 -3.9 24.9 68 -9 15.8
20:05 1018 30.06 847 25.01 -3.7 25.3 66 -9.2 15.5
20:10 1018 30.06 847 25.01 -3.7 25.4 66 -9.2 15.5
20:15 1018 30.06 847 25.01 -3.7 25.3 65 -9.3 15.2
20:20 1018 30.06 847 25.01 -3.7 25.3 65 -9.3 15.2
20:25 1018 30.06 847 25.01 -3.8 25.2 65 -9.5 14.9
20:30 1018 30.06 847 25.01 -3.7 25.3 65 -9.5 15
20:35 1018 30.06 847 25.01 -3.7 25.3 64 -9.5 14.9
20:40 1018 30.06 847 25.01 -3.7 25.3 65 -9.4 15
20:45 1018 30.06 847 25.01 -3.8 25.2 65 -9.5 15
20:50 1018 30.06 847 25.01 -3.7 25.3 64 -9.6 14.7
20:55 1018 30.06 847 25.01 -3.6 25.5 63 -9.8 14.4
21:00 1018 30.06 847 25.01 -3.5 25.7 63 -9.6 14.7
21:05 1018 30.06 847 25.01 -3.6 25.5 63 -9.6 14.8
21:10 1018 30.06 847 25.01 -3.7 25.4 64 -9.5 14.9
21:15 1018 30.06 847 25.01 -3.8 25.2 65 -9.5 14.9
21:20 1018 30.06 847 25.01 -3.8 25.2 65 -9.5 14.8
21:25 1018 30.06 847 25.01 -3.8 25.1 64 -9.6 14.7
21:30 1018 30.06 847 25.01 -3.9 25 66 -9.4 15.1
21:35 1018 30.06 847 25.01 -3.9 25 65 -9.6 14.7
21:40 1018 30.06 847 25.01 -4 24.8 65 -9.7 14.5
21:45 1018 30.06 847 25.01 -3.9 25 65 -9.6 14.7
21:50 1018 30.06 847 25.01 -3.8 25.2 62 -9.9 14.1
21:55 1018 30.06 847 25.01 -3.8 25.2 63 -9.9 14.2
22:00 1018 30.06 847 25.01 -3.8 25.2 63 -9.9 14.2
22:05 1018 30.06 847 25.01 -3.8 25.2 61 -10.2 13.6
22:10 1018 30.06 847 25.01 -3.5 25.6 60 -10.2 13.7
22:15 1018 30.06 847 25.01 -3.4 25.8 59 -10.2 13.6
22:20 1018 30.06 847 25.01 -3.4 25.9 60 -10.2 13.7
22:25 1018 30.06 847 25.01 -3.5 25.7 61 -10 14.1
22:30 1018 30.06 847 25.01 -3.6 25.6 60 -10.1 13.7
22:35 1018 30.06 848 25.04 -3.5 25.7 60 -10.2 13.7
22:40 1018 30.06 848 25.04 -3.4 25.8 61 -10 14
22:45 1018 30.06 848 25.04 -3.5 25.8 62 -9.6 14.6
22:50 1019 30.09 848 25.04 -3.5 25.7 61 -9.9 14.2
22:55 1019 30.09 848 25.04 -3.7 25.3 63 -9.7 14.6
23:00 1019 30.09 848 25.04 -3.8 25.2 63 -9.9 14.3
23:05 1019 30.09 848 25.04 -3.8 25.2 63 -9.8 14.4
23:10 1019 30.09 848 25.04 -3.9 24.9 63 -9.9 14.1
23:15 1019 30.09 848 25.04 -3.9 25 63 -9.9 14.2
23:20 1019 30.09 848 25.04 -3.7 25.3 62 -10 14
23:25 1019 30.09 848 25.04 -3.8 25.2 63 -9.9 14.3
23:30 1019 30.09 848 25.04 -3.8 25.1 62 -10 14
23:35 1019 30.09 848 25.04 -3.9 25.1 63 -9.9 14.2
23:40 1019 30.09 848 25.04 -3.9 25 63 -9.9 14.2
23:45 1019 30.09 848 25.04 -4.1 24.7 64 -9.9 14.2
23:50 1019 30.09 848 25.04 -4 24.7 59 -10.9 12.4
23:55 1019 30.09 848 25.04 -3.8 25.1 58 -10.9 12.4
24:00 1019 30.09 849 25.07 -3.8 25.1 57 -11 12.1